Laman API Video Percuma Terbaik

AVDBAPI.COM

Cari katalog, semak rekod, dan salin URL API bersih daripada papan pemuka pantas.

Telegram Join Our Telegram Community for Updates!
Today
36
Kemaskini Hari Ini
Censored
314014
Censored Videos
Total
474173
Total Videos

Senarai Video

Rekod terkini disusun mengikut masa kemas kini.

ID Nama CODE Kategori Dikemaskini API
269344 031718_659 Pelacur M Maki Hojo 031718_659 Tanpa sensor 2025-08-29 16:09:00 API
269343 PACOPACOMAMA-111518 Dah lama tak pakai kimono! PACOPACOMAMA-111518_376 Tanpa sensor 2025-08-29 16:08:50 API
269341 021420-001 Tengok seks aku! Tolong pancut pada muka aku! 2 Momoka Ogawa 021420-001 Tanpa sensor 2025-08-29 16:08:30 API
269340 FC2-PPV-4438494 Wanita 20 tahun G-cup yang meletup di atas tebing! FC2-PPV-4438494 Tanpa sensor 2025-08-29 16:08:20 API
269339 H4610-KI200905 Pakej Emas: Gadis 20 Tahun Yang Menggiurkan H4610-KI200905 Tanpa sensor 2025-08-29 16:08:10 API
269337 H0930-KI191027 Satomi Endo Wanita Seksi 34 Tahun H0930-KI191027 Tanpa sensor 2025-08-29 16:07:50 API
269336 032018_660 Koleksi Model Seksi Hikari Kannan 032018_660 Tanpa sensor 2025-08-29 16:07:40 API
269335 HEYZO-2169 Wanita-wanita mabuk yang kena kangkang dan dikongkek habis-habisan! HEYZO-2169 Tanpa sensor 2025-08-29 16:07:30 API
269334 061319-01 0619-01 Anak Gadis Amatir Masokis yang Tak Senonoh 061319-01 Tanpa sensor 2025-08-29 16:07:20 API
269333 C0930-KI190609 Wanita Cantik Shibuya Yumi Umur 28 Tahun C0930-KI190609 Tanpa sensor 2025-08-29 16:07:10 API
269332 111518-376 Dah lama tak pakai Kimono! Sekali lagi bersama wanita bersuami yang cantik 111518-376 Tanpa sensor 2025-08-29 16:07:00 API
269331 021520-001 Seperti Rama-rama ~ Soapland Kenderaan Dua Roda 11 di Pink Street ~ Mio Futaba Karin Morishita 021520-001 Tanpa sensor 2025-08-29 16:06:50 API
269330 FC2-PPV-4439851 Cerita Pelik dan Wanita Berpunggung Besar Terbaik! Dua Paket! FC2-PPV-4439851 Tanpa sensor 2025-08-29 16:06:40 API
269329 H4610-KI200906 Keiko Okuyama Wanita Cantik Berusia 27 Tahun H4610-KI200906 Tanpa sensor 2025-08-29 16:06:30 API
269328 H0930-KI191026 Gadis 20 Tahun Dengan Fetish Kencing H0930-KI191026 Tanpa sensor 2025-08-29 16:06:20 API
269327 K1391 Wanita Mangsa - K1391 Tanpa sensor 2025-08-29 16:06:10 API
269326 HEYZO-2208 Natsu [Natsu] Payudara E HEYZO-2208 Tanpa sensor 2025-08-29 16:06:00 API
269325 032118_661 Pancutan Ekstrem Ke Atas Reina Shiraishi 032118_661 Tanpa sensor 2025-08-29 16:05:50 API
269324 061519-01 Cara gadis ini bekerja ~ Mengukur suhu badan dengan kemaluan ~ 061519-01 Tanpa sensor 2025-08-29 16:05:40 API
269323 C0930-KI190608 Koleksi Kerja Atas Permintaan C0930-KI190608 Tanpa sensor 2025-08-29 16:05:30 API
269322 021820-001 Renjis air pada penghantar wanita dan lihat susu memancut dari payudara besarnya! Orihara Honoka 021820-001 Tanpa sensor 2025-08-29 16:05:20 API
269321 111718-377 Sayang, izinkan abang beli seluar dalam yang abang pakai sekarang! ~ T-back hitam yang menggoda ~ 111718-377 Tanpa sensor 2025-08-29 16:05:10 API
269320 HEYZO-2170 Gadis amatur yang mahu dikerjakan habis HEYZO-2170 Tanpa sensor 2025-08-29 16:05:00 API
269319 H0930-KI191029 Hitomi Tokunaga Umur 27 Tahun H0930-KI191029 Tanpa sensor 2025-08-29 16:04:50 API
269318 FC2-PPV-4440619 Model anti-graviti ketiga! Dewi 20 tahun G-cup 92 cm telah muncul! Gadis cantik yang kini menjadi model seksi! [Versi luar negara] FC2-PPV-4440619 Tanpa sensor 2025-08-29 16:04:40 API
269317 K1392 Wanita Mangsa K1392 Tanpa sensor 2025-08-29 16:04:30 API
269316 032418_662 Latihan Erotik Praktikal Untuk Isteri Muda Yang Tiada Pengalaman Ranjang! 032418_662 Tanpa sensor 2025-08-29 16:04:20 API
269315 H4610-KI200908 Seiko Akino, 22 tahun H4610-KI200908 Tanpa sensor 2025-08-29 16:04:10 API
269314 CHCH-031 Isteri amatur dengan payudara super montok yang sudah 20 tahun tidak kena kencing. Misato CHCH-031 Mosaik 2025-08-29 16:04:00 API
269313 C0930-KI190611 Wanita Matang 48 Tahun Keiko Iijima C0930-KI190611 Tanpa sensor 2025-08-29 16:03:50 API
269312 021920-001 Buku Gambar Puki Rei Furuse 021920-001 Tanpa sensor 2025-08-29 16:03:40 API
269311 MUSUME-061819_01 Amatur MUSUME-061819_01 Tanpa sensor 2025-08-29 16:03:30 API
269310 HEYZO-2171 Rahsia daripada suami, si cantik kena jilat habis oleh cherry boy HEYZO-2171 Tanpa sensor 2025-08-29 16:03:20 API
269309 H4610-KI200912 Masturbasi Sambil Ambil Selfie H4610-KI200912 Tanpa sensor 2025-08-29 16:03:10 API
269308 H0930-KI191031 Wanita Matang 43 Tahun Yoko Tomoda H0930-KI191031 Tanpa sensor 2025-08-29 16:03:00 API
269307 112018-378 Makcik ghairah yang ketagih kecergasan tetapi tidak bahagia 112018-378 Tanpa sensor 2025-08-29 16:02:50 API
269305 032718_663 Pelacur Amatir Yang Mudah Terangsang ~ Pancutan Mani Mentah Dalam Faraj Berterusan ~ 032718_663 Tanpa sensor 2025-08-29 16:02:30 API
269304 FC2-PPV-4445846 Menangis tiba Sistem fusi besar-besaran, wajah idola paling hebat dan payudara kedua yang penuh sperma FC2-PPV-4445846 Tanpa sensor 2025-08-29 16:02:20 API
269303 C0930-KI190613 Wanita Matang 48 Tahun Hiroko Amano C0930-KI190613 Tanpa sensor 2025-08-29 16:02:10 API
269302 HEYZO-146 Jururawat Berdada Besar Yang Pandai Memeluk: Kanna Kitayama HEYZO-146 Tanpa sensor 2025-08-29 16:02:00 API
269301 K1393 Wanita Mangsa K1393 Tanpa sensor 2025-08-29 16:01:50 API
269300 H4610-ORI1734 Ayuka Shinozawa, Gadis Seksi Berusia 20 Tahun H4610-ORI1734 Tanpa sensor 2025-08-29 16:01:40 API
269299 H0930-KI191102 Koleksi Video Atas Permintaan H0930-KI191102 Tanpa sensor 2025-08-29 16:01:30 API
269298 112118-382 101 Koleksi Gambar Puki Isteri Orang 112118-382 Tanpa sensor 2025-08-29 16:01:20 API
269297 022020-001 Antologi Gadis Sekolah: Yuuna Himekawa, Yuria Mano, Hikaru Shiina, Cecil Kurosaki, Momoka, Rui Natsukawa 022020-001 Tanpa sensor 2025-08-29 16:01:10 API
269296 061819-01 Jururawat Amatir yang Sangat Nakal dan Menggiurkan 061819-01 Tanpa sensor 2025-08-29 16:01:00 API
269295 C0930-KI190616 Gadis Cantik 21 Tahun Naomi Ide C0930-KI190616 Tanpa sensor 2025-08-29 16:00:50 API
269294 FC2-PPV-4440211 Barang kenangan terakhir dilarang digunakan di tempat awam! Gadis sopan yang ketagih seks kena lanyak dengan lelaki botak separuh umur sampai penuh sperma, dia pun kejar lelaki itu ! FC2-PPV-4440211 Tanpa sensor 2025-08-29 16:00:40 API
269293 032918_664 Saya mahu diikat ~ Si cantik berseragam dengan senyuman manis ~ 032918_664 Tanpa sensor 2025-08-29 16:00:30 API
269291 112118-379 Buku Gambar Khemak Isteri Orang 98 112118-379 Tanpa sensor 2025-08-29 16:00:10 API